AirNav   Get $300 off a Bose A20
 
 1521 users online  

XS67 San Jose Island Airport
Rockport, Texas, USA

GOING TO ROCKPORT?


FAA INFORMATION EFFECTIVE 25 APRIL 2019

Location

FAA Identifier: XS67
Lat/Long: 27-56-40.0000N / 096-59-06.0000W
27-56.666667N / 096-59.100000W
27.9444444 / -96.9850000
(estimated)
Elevation: 10.1 ft. / 3.1 m (surveyed)
Variation: 06E (2000)
From city: 6 miles SE of ROCKPORT, TX
Time zone: UTC -5 (UTC -6 during Standard Time)
Zip code: 78382

Airport Operations

Airport use: Private use. Permission required prior to landing
Activation date: 03/1972
Control tower: no
ARTCC: HOUSTON CENTER
FSS: SAN ANGELO FLIGHT SERVICE STATION
NOTAMs facility: FDC (NOTAM-D service not available)
Attendance: UNATNDD
Wind indicator: yes
Segmented circle: no
Lights: ACTVT MIRL RY 14/32 & VASIS RY 14 & 32 - CTAF.

Airport Communications

WX ASOS at RKP (9 nm N): 119.275 (361-729-2372)
WX AWOS-3 at RAS (10 nm SW): 118.425 (361-749-0537)
WX AWOS-3 at TFP (12 nm W): 118.775 (361-758-8961)

Nearby radio navigation aids

VOR radial/distance  VOR name  Freq  Var
NGPr041/22.6TRUAX VORTAC114.0006E
CRPr075/24.5CORPUS CHRISTI VORTAC115.5009E

 
NDB name  Hdg/Dist  Freq  Var  ID
MELLON RANCH144/23.337506EMNO -- -. ---

Airport Services

Runway Information

Runway 14/32

Dimensions: 4901 x 60 ft. / 1494 x 18 m
Surface: asphalt
Runway edge lights: medium intensity
STROBE LGTS.
RUNWAY 14  RUNWAY 32
Latitude: 27-57.017390N27-56.317497N
Longitude: 096-59.328853W096-58.872365W
Elevation: 2.9 ft.6.5 ft.
Traffic pattern: leftleft
Runway heading: 144 magnetic, 150 true324 magnetic, 330 true
Visual slope indicator: 2-light PAPI on left (3.00 degrees glide path)2-light PAPI on left (2.90 degrees glide path)
Runway end identifier lights: yesyes
Touchdown point: yes, no lightsyes, no lights

Airport Ownership and Management from official FAA records

Ownership: Privately-owned
Owner: DOWNTOWN DIVERSIFIED REALTY LLC
201 MAIN STREET, SUITE 2600
FT WORTH, TX 76102
Phone 817-625-1611
Manager: STEVE OHMSTEDE
3800 LINCOLN AVE.
FT WORTH, TX 76106
Phone (917) 625-1611

Additional Remarks

VASIS BOTH ENDS RWY 14/32.
FOR CD CTC CORPUS CHRISTI APCH AT 361-299-4230.

Instrument Procedures

There are no published instrument procedures at XS67.

Some nearby airports with instrument procedures:

KRKP - Aransas County Airport (9 nm N)
KRAS - Mustang Beach Airport (10 nm SW)
KTFP - McCampbell-Porter Airport (12 nm W)
KNGP - Corpus Christi Naval Air Station/Truax Field (22 nm SW)
KCRP - Corpus Christi International Airport (29 nm W)
 
Loc | Ops | Rwys | IFR | FBO | Links
Com | Nav | Svcs | Stats | Notes
Area around XS67 (San Jose Island Airport)
 
Road maps at: MapQuest Bing Google
 
Aerial photo
WARNING: Photo may not be current or correct
Aerial photo of XS67 (San Jose Island Airport)
Do you have a better or more recent aerial photo of San Jose Island Airport that you would like to share? If so, please send us your photo.

 
Sectional chart

 
Airport distance calculator
Flying to San Jose Island Airport? Find the distance to fly.

From to XS67

Sunrise and sunset
Times for 25-Apr-2019
 Local
(UTC-5)
 Zulu
(UTC)
Morning civil twilight06:3011:30
Sunrise06:5411:54
Sunset19:5800:58
Evening civil twilight20:2201:22

Current date and time
Zulu (UTC)  25-Apr-2019 17:13:06
Local (UTC-5)  25-Apr-2019 12:13:06
 
METAR
KRKP 
9nm N 
251653Z AUTO 28008KT 10SM CLR 24/16 A2989 RMK AO2 SLP124 T02440161
KRAS 
10nm SW 
251655Z AUTO 33009KT 280V340 10SM CLR 24/16 A2992 RMK AO2 T02420160
KTFP 
12nm W 
251655Z AUTO 34010KT 10SM CLR 26/17 A2990 RMK AO2 T02590170 PNO
TAF
KNGP 
22nm SW 
2515/2615 31013KT 9999 FEW015FEW200 QNH2986INS FM251900 35010KT 9999 SKC QNH2983INS FM252100 VRB06KT 9999 SKC QNH2982INS FM261000 35007KT 9999 SKC QNH2999INS FM261300 04007KT 9999 SKC QNH3003INS T30/2519Z T20/2613Z FN20044
NOTAMs
Click for the latest NOTAMs
NOTAMs are issued by the DoD/FAA and will open in a separate window not controlled by AirNav.

 

 
 

Would you like to see your business listed on this page?

 If your business provides an interesting product or service to pilots, flight crews, aircraft, or users of the San Jose Island Airport, you should consider listing it here.  To start the listing process, click on the button below
 
Add a business
 

Other Pages about San Jose Island Airport

Update a link
 
Copyright © AirNav, LLC. All rights reserved. Privacy Policy  Contact